Terminal Aerodrome Forecast
Issued by NWS Bismarck, ND

Home | Current Version | Previous Version | Text Only | Print | Product List | Glossary On
Versions: 1 2 3 4 5 6 7 8 9 10 11 12 13 14 15 16 17
914
FTUS43 KBIS 181729
TAFISN
TAF
KISN 181729Z 1818/1918 28018G28KT P6SM SKC
     FM182300 27012KT P6SM FEW200
     FM190200 21007KT P6SM FEW200
     FM190600 17007KT P6SM FEW200
     FM191000 18007KT P6SM FEW150=

USA.gov is the U.S. government's official web portal to all federal, state and local government web resources and services.